createdAt,value
2022-10-18T00:00:05.836Z,11.80
2022-10-18T00:00:48.142Z,14.47
2022-10-18T00:01:29.880Z,13.38
2022-10-18T00:02:11.799Z,11.93
2022-10-18T00:02:53.630Z,11.10
2022-10-18T00:03:36.199Z,10.15
2022-10-18T00:04:17.897Z,10.90
2022-10-18T00:04:59.606Z,12.63
2022-10-18T00:05:41.243Z,11.45
2022-10-18T00:06:22.897Z,10.80
2022-10-18T00:07:04.586Z,12.25
2022-10-18T00:07:46.294Z,14.20
2022-10-18T00:08:28.450Z,10.88
2022-10-18T00:09:10.114Z,13.07
2022-10-18T00:09:51.817Z,13.57
2022-10-18T00:10:33.463Z,13.13
2022-10-18T00:11:15.113Z,11.40
2022-10-18T00:11:57.756Z,11.70
2022-10-18T00:12:39.750Z,11.20
2022-10-18T00:13:21.861Z,12.00
2022-10-18T00:14:04.150Z,12.80
2022-10-18T00:14:50.687Z,14.23
2022-10-18T00:15:32.513Z,15.93
2022-10-18T00:16:18.596Z,11.20
2022-10-18T00:17:00.264Z,12.25
2022-10-18T00:17:41.894Z,11.10
2022-10-18T00:18:23.851Z,11.23
2022-10-18T00:19:05.639Z,11.80
2022-10-18T00:19:48.155Z,12.00
2022-10-18T00:20:30.128Z,11.88
2022-10-18T00:21:14.574Z,13.65
2022-10-18T00:21:56.484Z,13.98
2022-10-18T00:22:40.170Z,14.30
2022-10-18T00:23:21.907Z,12.65
2022-10-18T00:24:04.354Z,10.65
2022-10-18T00:24:46.009Z,10.30
2022-10-18T00:25:27.640Z,10.45
2022-10-18T00:26:18.242Z,12.25
2022-10-18T00:26:59.868Z,12.20
2022-10-18T00:27:41.826Z,13.75
2022-10-18T00:28:23.483Z,13.65
2022-10-18T00:29:06.863Z,13.95
2022-10-18T00:29:51.854Z,13.68
2022-10-18T00:30:33.476Z,10.77
2022-10-18T00:31:24.409Z,12.00
2022-10-18T00:32:06.161Z,9.50
2022-10-18T00:32:47.817Z,11.27
2022-10-18T00:33:29.445Z,10.98
2022-10-18T00:34:14.090Z,10.00
2022-10-18T00:34:55.759Z,11.13
2022-10-18T00:35:37.391Z,11.30
2022-10-18T00:36:19.885Z,9.50
2022-10-18T00:37:01.596Z,14.10
2022-10-18T00:37:43.309Z,13.03
2022-10-18T00:38:24.966Z,11.75
2022-10-18T00:39:08.102Z,11.27
2022-10-18T00:39:50.075Z,11.57
2022-10-18T00:40:31.717Z,10.70
2022-10-18T00:41:17.671Z,11.90
2022-10-18T00:41:59.300Z,11.10
2022-10-18T00:42:40.957Z,11.05
2022-10-18T00:43:22.606Z,12.10
2022-10-18T00:44:07.797Z,11.07
2022-10-18T00:44:49.419Z,9.43
2022-10-18T00:45:31.127Z,10.02
2022-10-18T00:46:12.765Z,10.35
2022-10-18T00:47:01.426Z,10.85
2022-10-18T00:47:50.286Z,12.07
2022-10-18T00:48:31.928Z,11.50
2022-10-18T00:49:35.603Z,10.00
2022-10-18T00:50:18.894Z,13.32
2022-10-18T00:51:00.598Z,16.38
2022-10-18T00:51:57.813Z,13.85
2022-10-18T00:52:54.029Z,13.93
2022-10-18T00:53:36.460Z,12.02
2022-10-18T00:54:20.709Z,10.65
2022-10-18T00:55:03.123Z,12.90
2022-10-18T00:55:45.545Z,15.52
2022-10-18T00:56:27.490Z,12.48
2022-10-18T00:57:09.958Z,11.95
2022-10-18T00:58:40.046Z,13.38
2022-10-18T00:59:22.304Z,12.77
2022-10-18T01:00:09.705Z,11.25
2022-10-18T01:00:51.354Z,14.93
2022-10-18T01:01:33.097Z,12.90
2022-10-18T01:02:18.150Z,11.90
2022-10-18T01:02:59.811Z,12.20
2022-10-18T01:03:42.436Z,11.10
2022-10-18T01:04:24.450Z,13.00
2022-10-18T01:05:06.944Z,12.98
2022-10-18T01:05:49.078Z,12.60
2022-10-18T01:06:32.093Z,12.15
2022-10-18T01:07:50.275Z,14.07
2022-10-18T01:08:57.934Z,14.83
2022-10-18T01:09:51.089Z,15.00
2022-10-18T01:10:44.414Z,15.93
2022-10-18T01:11:43.258Z,16.20
2022-10-18T01:12:46.152Z,15.20
2022-10-18T01:13:58.305Z,14.00
2022-10-18T01:15:16.179Z,12.40
2022-10-18T01:16:08.562Z,15.20
2022-10-18T01:17:11.350Z,16.70
2022-10-18T01:18:30.155Z,13.45
2022-10-18T01:19:53.543Z,15.38
2022-10-18T01:21:02.514Z,14.68
2022-10-18T01:22:10.458Z,15.90
2022-10-18T01:23:10.682Z,14.45
2022-10-18T01:24:29.277Z,11.77
2022-10-18T01:25:29.943Z,15.13
2022-10-18T01:26:48.297Z,13.95
2022-10-18T01:27:48.506Z,13.27
2022-10-18T01:29:05.493Z,13.50
2022-10-18T01:30:31.670Z,13.20
2022-10-18T01:31:27.899Z,14.30
2022-10-18T01:32:17.031Z,11.95
2022-10-18T01:33:05.485Z,12.98
2022-10-18T01:33:53.422Z,13.02
2022-10-18T01:34:38.474Z,13.65
2022-10-18T01:35:29.396Z,12.55
2022-10-18T01:36:24.161Z,14.82
2022-10-18T01:37:11.627Z,17.27
2022-10-18T01:37:57.503Z,16.60
2022-10-18T01:38:40.932Z,15.43
2022-10-18T01:39:27.238Z,14.68
2022-10-18T01:40:10.370Z,13.25
2022-10-18T01:40:53.240Z,15.45
2022-10-18T01:41:38.920Z,16.33
2022-10-18T01:42:21.357Z,14.95
2022-10-18T01:43:04.571Z,13.70
2022-10-18T01:43:50.449Z,14.00
2022-10-18T01:44:33.316Z,13.90
2022-10-18T01:45:16.627Z,14.50
2022-10-18T01:45:59.983Z,12.93
2022-10-18T01:46:44.357Z,13.27
2022-10-18T01:47:28.230Z,14.00
2022-10-18T01:48:12.050Z,14.70
2022-10-18T01:48:55.193Z,12.73
2022-10-18T01:49:36.949Z,14.38
2022-10-18T01:50:31.864Z,13.23
2022-10-18T01:51:13.598Z,15.90
2022-10-18T01:51:55.369Z,15.18
2022-10-18T01:52:50.685Z,15.85
2022-10-18T01:53:34.525Z,13.15
2022-10-18T01:54:22.426Z,15.20
2022-10-18T01:55:04.982Z,14.25
2022-10-18T01:56:16.743Z,14.90
2022-10-18T01:57:03.224Z,15.27
2022-10-18T01:58:05.822Z,15.27
2022-10-18T01:59:24.320Z,15.95
2022-10-18T02:00:31.610Z,13.88
2022-10-18T02:01:29.279Z,13.85
2022-10-18T02:02:22.609Z,14.32
2022-10-18T02:03:23.420Z,16.60
2022-10-18T02:04:21.799Z,19.35
2022-10-18T02:05:21.974Z,13.57
2022-10-18T02:06:17.912Z,16.85
2022-10-18T02:07:07.271Z,13.80
2022-10-18T02:08:33.414Z,15.02
2022-10-18T02:09:39.154Z,19.30
2022-10-18T02:10:42.500Z,15.95
2022-10-18T02:11:26.226Z,16.20
2022-10-18T02:12:11.140Z,18.80
2022-10-18T02:12:55.242Z,16.10
2022-10-18T02:13:41.859Z,15.30
2022-10-18T02:14:25.565Z,13.70
2022-10-18T02:15:09.952Z,16.65
2022-10-18T02:15:57.736Z,15.35
2022-10-18T02:16:45.879Z,17.25
2022-10-18T02:17:29.935Z,16.20
2022-10-18T02:18:16.448Z,19.42
2022-10-18T02:19:15.941Z,20.08
2022-10-18T02:19:59.963Z,18.20
2022-10-18T02:20:42.284Z,17.80
2022-10-18T02:21:25.667Z,15.70
2022-10-18T02:22:09.915Z,18.05
2022-10-18T02:22:55.365Z,18.05
2022-10-18T02:23:39.140Z,17.60
2022-10-18T02:24:23.547Z,17.83
2022-10-18T02:25:10.900Z,16.17
2022-10-18T02:25:53.558Z,18.67
2022-10-18T02:26:35.635Z,18.20
2022-10-18T02:27:17.496Z,17.50
2022-10-18T02:27:59.338Z,17.50
2022-10-18T02:28:41.476Z,18.60
2022-10-18T02:29:23.525Z,17.70
2022-10-18T02:30:06.629Z,23.30
2022-10-18T02:31:05.880Z,19.88
2022-10-18T02:31:49.960Z,18.52
2022-10-18T02:33:04.057Z,19.07
2022-10-18T02:33:48.487Z,19.85
2022-10-18T02:34:35.732Z,19.60
2022-10-18T02:35:29.521Z,18.90
2022-10-18T02:36:18.149Z,16.83
2022-10-18T02:37:01.395Z,21.17
2022-10-18T02:37:44.727Z,20.98
2022-10-18T02:38:27.011Z,18.25
2022-10-18T02:39:14.733Z,17.98
2022-10-18T02:39:56.725Z,19.42
2022-10-18T02:40:38.575Z,20.50
2022-10-18T02:41:27.762Z,21.95
2022-10-18T02:42:11.011Z,22.85
2022-10-18T02:42:58.010Z,24.02
2022-10-18T02:43:39.647Z,22.60
2022-10-18T02:44:21.413Z,18.23
2022-10-18T02:45:04.481Z,18.15
2022-10-18T02:45:46.141Z,20.17
2022-10-18T02:47:14.554Z,19.38
2022-10-18T02:47:56.183Z,15.63
2022-10-18T02:48:37.826Z,17.25
2022-10-18T02:49:19.470Z,17.05
2022-10-18T02:50:01.105Z,17.67
2022-10-18T02:50:42.733Z,17.33
2022-10-18T02:51:25.170Z,19.55
2022-10-18T02:52:07.135Z,17.52
2022-10-18T02:52:48.769Z,18.35
2022-10-18T02:53:30.419Z,20.02
2022-10-18T02:54:12.084Z,20.15
2022-10-18T02:54:53.765Z,18.08
2022-10-18T02:55:35.415Z,17.70
2022-10-18T02:56:17.085Z,19.33
2022-10-18T02:56:58.792Z,18.00
2022-10-18T02:57:40.479Z,18.27
2022-10-18T02:58:22.110Z,15.60
2022-10-18T02:59:05.568Z,14.40
2022-10-18T02:59:47.263Z,15.88
2022-10-18T03:00:28.889Z,19.25
2022-10-18T03:01:10.592Z,18.17
2022-10-18T03:01:52.401Z,20.15
2022-10-18T03:02:34.069Z,18.08
2022-10-18T03:03:15.705Z,20.60
2022-10-18T03:03:57.730Z,22.48
2022-10-18T03:04:39.412Z,20.25
2022-10-18T03:05:21.054Z,18.60
2022-10-18T03:06:02.707Z,16.65
2022-10-18T03:06:44.378Z,21.10
2022-10-18T03:07:26.240Z,17.10
2022-10-18T03:08:07.894Z,18.80
2022-10-18T03:08:49.542Z,19.38
2022-10-18T03:09:31.225Z,17.02
2022-10-18T03:10:12.876Z,18.02
2022-10-18T03:10:54.608Z,21.50
2022-10-18T03:11:36.255Z,20.95
2022-10-18T03:12:17.972Z,22.02
2022-10-18T03:12:59.590Z,18.77
2022-10-18T03:13:41.268Z,19.70
2022-10-18T03:14:23.015Z,19.88
2022-10-18T03:15:05.108Z,17.35
2022-10-18T03:15:48.185Z,18.63
2022-10-18T03:16:29.875Z,18.48
2022-10-18T03:17:11.667Z,17.73
2022-10-18T03:17:53.278Z,20.92
2022-10-18T03:18:34.983Z,20.77
2022-10-18T03:19:16.799Z,19.10
2022-10-18T03:19:58.447Z,17.55
2022-10-18T03:20:40.444Z,17.75
2022-10-18T03:21:22.143Z,19.75
2022-10-18T03:22:04.077Z,16.55
2022-10-18T03:22:45.697Z,20.20
2022-10-18T03:23:27.330Z,20.50
2022-10-18T03:24:09.002Z,18.90
2022-10-18T03:24:50.661Z,17.75
2022-10-18T03:25:32.332Z,17.25
2022-10-18T03:26:14.035Z,18.35
2022-10-18T03:26:55.683Z,17.10
2022-10-18T03:27:37.322Z,21.65
2022-10-18T03:28:19.265Z,20.20
2022-10-18T03:29:00.998Z,17.02
2022-10-18T03:29:42.718Z,16.30
2022-10-18T03:30:24.401Z,16.48
2022-10-18T03:31:06.082Z,18.75
2022-10-18T03:31:47.825Z,20.05
2022-10-18T03:32:29.653Z,19.67
2022-10-18T03:33:11.480Z,19.20
2022-10-18T03:33:53.140Z,17.60
2022-10-18T03:34:34.767Z,15.75
2022-10-18T03:35:16.551Z,16.77
2022-10-18T03:35:58.282Z,18.13
2022-10-18T03:36:41.360Z,20.75
2022-10-18T03:37:23.085Z,18.13
2022-10-18T03:38:04.817Z,18.15
2022-10-18T03:38:46.478Z,18.35
2022-10-18T03:39:28.114Z,19.00
2022-10-18T03:40:10.143Z,17.42
2022-10-18T03:40:51.959Z,18.17
2022-10-18T03:41:33.654Z,19.02
2022-10-18T03:42:15.286Z,21.65
2022-10-18T03:42:56.977Z,22.15
2022-10-18T03:43:38.664Z,21.92
2022-10-18T03:44:20.301Z,19.35
2022-10-18T03:45:01.991Z,16.63
2022-10-18T03:45:43.621Z,14.98
2022-10-18T03:46:25.246Z,18.02
2022-10-18T03:47:06.879Z,16.25
2022-10-18T03:47:48.525Z,15.95
2022-10-18T03:48:30.278Z,16.90
2022-10-18T03:49:12.058Z,17.30
2022-10-18T03:49:56.340Z,17.10
2022-10-18T03:50:39.037Z,17.70
2022-10-18T03:51:20.640Z,17.77
2022-10-18T03:52:02.287Z,19.30
2022-10-18T03:52:43.926Z,22.55
2022-10-18T03:53:25.606Z,17.85
2022-10-18T03:54:07.244Z,21.25
2022-10-18T03:54:48.878Z,19.75
2022-10-18T03:55:30.530Z,20.13
2022-10-18T03:56:12.202Z,17.60
2022-10-18T03:56:53.888Z,18.20
2022-10-18T03:57:35.620Z,17.20
2022-10-18T03:58:17.239Z,16.33
2022-10-18T03:58:58.882Z,16.27
2022-10-18T03:59:40.517Z,15.15
2022-10-18T04:00:22.691Z,14.77
2022-10-18T04:01:04.413Z,15.80
2022-10-18T04:01:46.189Z,18.70
2022-10-18T04:02:27.914Z,18.40
2022-10-18T04:03:09.971Z,15.70
2022-10-18T04:03:51.729Z,15.45
2022-10-18T04:04:33.361Z,16.83
2022-10-18T04:05:15.154Z,16.23
2022-10-18T04:05:57.118Z,15.68
2022-10-18T04:06:38.778Z,16.02
2022-10-18T04:07:20.401Z,17.40
2022-10-18T04:08:02.280Z,18.50
2022-10-18T04:08:43.917Z,16.17
2022-10-18T04:09:25.543Z,16.25
2022-10-18T04:10:07.786Z,16.10
2022-10-18T04:10:49.559Z,16.55
2022-10-18T04:11:31.250Z,14.77
2022-10-18T04:12:12.906Z,16.90
2022-10-18T04:12:54.825Z,17.88
2022-10-18T04:13:36.878Z,17.02
2022-10-18T04:14:18.682Z,17.50
2022-10-18T04:15:00.338Z,16.88
2022-10-18T04:15:42.813Z,17.67
2022-10-18T04:16:24.588Z,17.20
2022-10-18T04:17:06.319Z,17.13
2022-10-18T04:17:47.973Z,16.20
2022-10-18T04:18:29.686Z,15.60
2022-10-18T04:19:11.350Z,16.63
2022-10-18T04:19:53.034Z,17.50
2022-10-18T04:20:34.688Z,16.25
2022-10-18T04:21:16.688Z,15.52
2022-10-18T04:21:58.454Z,15.07
2022-10-18T04:22:40.122Z,16.83
2022-10-18T04:23:21.783Z,16.15
2022-10-18T04:24:03.575Z,14.75
2022-10-18T04:24:45.267Z,14.77
2022-10-18T04:25:27.014Z,16.15
2022-10-18T04:26:08.741Z,16.65
2022-10-18T04:26:50.433Z,15.30
2022-10-18T04:27:32.493Z,14.25
2022-10-18T04:28:14.396Z,15.57
2022-10-18T04:28:56.122Z,16.10
2022-10-18T04:29:37.847Z,16.92
2022-10-18T04:30:19.509Z,16.33
2022-10-18T04:31:01.330Z,15.52
2022-10-18T04:31:43.181Z,14.38
2022-10-18T04:32:26.634Z,16.63
2022-10-18T04:33:08.297Z,16.50
2022-10-18T04:33:49.992Z,15.52
2022-10-18T04:34:31.721Z,19.02
2022-10-18T04:35:13.509Z,17.88
2022-10-18T04:35:55.182Z,15.35
2022-10-18T04:36:37.149Z,13.10
2022-10-18T04:37:18.780Z,15.15
2022-10-18T04:38:00.453Z,16.55
2022-10-18T04:38:42.114Z,17.00
2022-10-18T04:39:23.816Z,15.98
2022-10-18T04:40:06.158Z,16.17
2022-10-18T04:40:47.841Z,16.75
2022-10-18T04:41:29.506Z,18.08
2022-10-18T04:42:11.161Z,17.23
2022-10-18T04:42:52.813Z,15.82
2022-10-18T04:43:34.510Z,18.20
2022-10-18T04:44:16.237Z,16.88
2022-10-18T04:44:57.921Z,16.88
2022-10-18T04:45:39.658Z,15.98
2022-10-18T04:46:21.316Z,15.45
2022-10-18T04:47:02.993Z,14.90
2022-10-18T04:47:44.653Z,15.60
2022-10-18T04:48:26.793Z,15.85
2022-10-18T04:49:08.444Z,13.15
2022-10-18T04:49:50.114Z,15.05
2022-10-18T04:50:31.797Z,14.70
2022-10-18T04:51:13.472Z,13.90
2022-10-18T04:51:55.167Z,18.60
2022-10-18T04:52:36.929Z,16.30
2022-10-18T04:53:19.161Z,16.25
2022-10-18T04:54:00.813Z,15.20
2022-10-18T04:54:42.441Z,14.68
2022-10-18T04:55:24.134Z,16.25
2022-10-18T04:56:06.187Z,16.30
2022-10-18T04:56:47.823Z,16.20
2022-10-18T04:57:29.683Z,16.10
2022-10-18T04:58:11.696Z,17.88
2022-10-18T04:58:53.373Z,17.48
2022-10-18T04:59:35.046Z,14.73
2022-10-18T05:00:16.847Z,15.20
2022-10-18T05:00:58.520Z,15.55
2022-10-18T05:01:40.306Z,17.05
2022-10-18T05:02:22.006Z,18.08
2022-10-18T05:03:03.881Z,21.17
2022-10-18T05:03:45.607Z,24.33
2022-10-18T05:04:27.413Z,22.23
2022-10-18T05:05:11.768Z,19.80
2022-10-18T05:06:03.603Z,21.35
2022-10-18T05:06:45.830Z,19.60
2022-10-18T05:07:27.535Z,17.90
2022-10-18T05:08:09.284Z,18.50
2022-10-18T05:08:50.994Z,20.17
2022-10-18T05:09:33.230Z,19.20
2022-10-18T05:10:14.943Z,19.88
2022-10-18T05:10:56.741Z,18.00
2022-10-18T05:11:38.598Z,20.80
2022-10-18T05:12:20.322Z,21.52
2022-10-18T05:13:02.031Z,21.30
2022-10-18T05:13:46.010Z,20.17
2022-10-18T05:14:30.241Z,18.70
2022-10-18T05:15:11.943Z,17.15
2022-10-18T05:15:53.658Z,20.27
2022-10-18T05:16:35.386Z,19.02
2022-10-18T05:17:17.039Z,18.85
2022-10-18T05:17:58.720Z,19.25
2022-10-18T05:18:40.432Z,19.85
2022-10-18T05:19:22.167Z,18.80
2022-10-18T05:20:04.419Z,16.75
2022-10-18T05:20:46.680Z,21.80
2022-10-18T05:21:28.399Z,20.70
2022-10-18T05:22:10.116Z,20.48
2022-10-18T05:22:51.794Z,19.48
2022-10-18T05:23:33.472Z,20.90
2022-10-18T05:24:15.292Z,22.42
2022-10-18T05:24:57.016Z,20.13
2022-10-18T05:25:39.904Z,19.08
2022-10-18T05:26:21.592Z,19.33
2022-10-18T05:27:03.433Z,21.35
2022-10-18T05:27:45.156Z,22.35
2022-10-18T05:28:42.195Z,20.98
2022-10-18T05:29:24.826Z,21.38
2022-10-18T05:30:07.135Z,20.48
2022-10-18T05:30:48.814Z,24.60
2022-10-18T05:31:30.447Z,23.17
2022-10-18T05:32:12.373Z,18.90
2022-10-18T05:32:54.038Z,20.58
2022-10-18T05:33:36.013Z,20.50
2022-10-18T05:34:20.557Z,20.75
2022-10-18T05:35:02.224Z,22.42
2022-10-18T05:35:43.862Z,19.90
2022-10-18T05:36:26.163Z,21.35
2022-10-18T05:37:07.945Z,20.13
2022-10-18T05:37:49.599Z,19.60
2022-10-18T05:38:31.470Z,18.83
2022-10-18T05:39:13.262Z,20.60
2022-10-18T05:39:54.899Z,19.35
2022-10-18T05:40:39.347Z,17.33
2022-10-18T05:41:21.063Z,18.10
2022-10-18T05:42:02.784Z,20.27
2022-10-18T05:42:44.441Z,22.42
2022-10-18T05:43:29.362Z,19.35
2022-10-18T05:44:11.003Z,21.38
2022-10-18T05:44:52.676Z,22.52
2022-10-18T05:45:34.310Z,21.27
2022-10-18T05:46:16.051Z,20.67
2022-10-18T05:46:57.830Z,21.08
2022-10-18T05:47:39.479Z,20.75
2022-10-18T05:48:21.272Z,24.88
2022-10-18T05:49:02.978Z,19.77
2022-10-18T05:49:44.619Z,19.70
2022-10-18T05:50:26.298Z,20.77
2022-10-18T05:51:07.948Z,19.15
2022-10-18T05:51:49.738Z,19.92
2022-10-18T05:52:31.706Z,20.05
2022-10-18T05:53:35.286Z,18.75
2022-10-18T05:54:15.460Z,19.05
2022-10-18T05:54:57.090Z,21.20
2022-10-18T05:55:38.777Z,20.30
2022-10-18T05:56:20.548Z,21.20
2022-10-18T05:57:02.223Z,24.10
2022-10-18T05:57:43.897Z,19.10
2022-10-18T05:58:25.548Z,18.00
2022-10-18T05:59:11.947Z,18.13
2022-10-18T05:59:53.827Z,21.27
2022-10-18T06:00:38.586Z,21.23
2022-10-18T06:01:20.768Z,20.35
2022-10-18T06:02:02.733Z,20.58
2022-10-18T06:02:44.567Z,20.27
2022-10-18T06:03:27.594Z,18.65
2022-10-18T06:04:12.602Z,19.67
2022-10-18T06:04:54.239Z,19.75
2022-10-18T06:05:36.069Z,21.33
2022-10-18T06:06:17.775Z,18.80
2022-10-18T06:06:59.397Z,22.83
2022-10-18T06:07:41.009Z,23.77
2022-10-18T06:08:22.649Z,21.73
2022-10-18T06:09:06.184Z,20.55
2022-10-18T06:09:47.809Z,20.23
2022-10-18T06:10:29.449Z,22.30
2022-10-18T06:11:15.097Z,25.08
2022-10-18T06:11:57.634Z,20.55
2022-10-18T06:12:39.443Z,20.80
2022-10-18T06:13:21.141Z,20.33
2022-10-18T06:14:03.120Z,24.13
2022-10-18T06:14:44.876Z,21.25
2022-10-18T06:15:26.655Z,19.73
2022-10-18T06:16:09.368Z,20.48
2022-10-18T06:16:51.073Z,21.95
2022-10-18T06:17:32.770Z,21.45
2022-10-18T06:18:14.482Z,20.98
2022-10-18T06:18:57.699Z,22.00
2022-10-18T06:19:39.423Z,21.90
2022-10-18T06:20:21.070Z,21.65
2022-10-18T06:21:02.704Z,19.98
2022-10-18T06:21:44.439Z,19.75
2022-10-18T06:22:26.078Z,21.13
2022-10-18T06:23:07.738Z,19.30
2022-10-18T06:23:53.731Z,21.60
2022-10-18T06:24:35.428Z,19.75
2022-10-18T06:25:17.139Z,19.05
2022-10-18T06:26:00.543Z,21.88
2022-10-18T06:26:42.278Z,19.20
2022-10-18T06:27:23.911Z,16.98
2022-10-18T06:28:07.964Z,16.13
2022-10-18T06:28:52.082Z,18.58
2022-10-18T06:29:33.794Z,20.73
2022-10-18T06:30:15.670Z,20.25
2022-10-18T06:30:58.195Z,18.88
2022-10-18T06:31:39.965Z,19.80
2022-10-18T06:32:21.595Z,22.13
2022-10-18T06:33:03.249Z,23.45
2022-10-18T06:33:46.046Z,23.35
2022-10-18T06:34:27.661Z,19.42
2022-10-18T06:35:09.634Z,20.23
2022-10-18T06:35:59.442Z,23.17
2022-10-18T06:36:41.126Z,20.05
2022-10-18T06:37:22.801Z,21.17
2022-10-18T06:38:04.482Z,21.15
2022-10-18T06:38:46.208Z,23.08
2022-10-18T06:39:28.091Z,25.08
2022-10-18T06:40:10.670Z,22.75
2022-10-18T06:40:52.322Z,21.92
2022-10-18T06:41:34.101Z,21.15
2022-10-18T06:42:17.999Z,21.95
2022-10-18T06:43:19.482Z,23.15
2022-10-18T06:44:07.162Z,20.80
2022-10-18T06:44:49.778Z,23.20
2022-10-18T06:45:31.466Z,22.10
2022-10-18T06:46:13.184Z,23.75
2022-10-18T06:46:54.863Z,22.30
2022-10-18T06:47:36.526Z,23.98
2022-10-18T06:49:02.005Z,22.90
2022-10-18T06:49:43.661Z,22.15
2022-10-18T06:50:25.418Z,22.35
2022-10-18T06:51:08.673Z,26.45
2022-10-18T06:51:50.438Z,26.30
2022-10-18T06:52:32.337Z,25.02
2022-10-18T06:53:14.150Z,21.08
2022-10-18T06:54:13.332Z,22.02
2022-10-18T06:54:57.486Z,20.20
2022-10-18T06:55:39.192Z,24.80
2022-10-18T06:56:20.929Z,22.73
2022-10-18T06:57:03.167Z,22.95
2022-10-18T06:57:44.782Z,21.13
2022-10-18T06:58:26.485Z,19.88
2022-10-18T06:59:08.310Z,20.08
2022-10-18T06:59:51.152Z,21.48
2022-10-18T07:00:32.846Z,19.38
2022-10-18T07:01:16.306Z,21.48
2022-10-18T07:01:58.095Z,22.67
2022-10-18T07:02:41.241Z,21.50
2022-10-18T07:03:23.373Z,19.25
2022-10-18T07:04:05.026Z,20.08
2022-10-18T07:04:46.674Z,20.33
2022-10-18T07:05:28.509Z,19.67
2022-10-18T07:06:12.650Z,19.38
2022-10-18T07:06:54.475Z,21.38
2022-10-18T07:07:36.329Z,21.17
2022-10-18T07:08:18.527Z,23.75
2022-10-18T07:09:02.840Z,23.70
2022-10-18T07:09:45.991Z,22.83
2022-10-18T07:10:27.791Z,20.58
2022-10-18T07:11:15.578Z,21.08
2022-10-18T07:11:57.245Z,20.02
2022-10-18T07:12:39.144Z,20.08
2022-10-18T07:13:32.330Z,21.77
2022-10-18T07:14:16.522Z,20.45
2022-10-18T07:14:58.328Z,18.90
2022-10-18T07:15:40.021Z,20.60
2022-10-18T07:16:21.823Z,22.45
2022-10-18T07:17:03.476Z,20.40
2022-10-18T07:17:49.066Z,20.02
2022-10-18T07:18:30.747Z,20.98
2022-10-18T07:19:12.480Z,20.40
2022-10-18T07:19:54.144Z,21.80
2022-10-18T07:20:35.780Z,19.50
2022-10-18T07:21:20.447Z,20.42
2022-10-18T07:22:02.076Z,19.60
2022-10-18T07:22:43.725Z,20.85
2022-10-18T07:23:25.458Z,18.67
2022-10-18T07:24:07.183Z,20.25
2022-10-18T07:24:48.863Z,19.98
2022-10-18T07:25:31.184Z,19.05
2022-10-18T07:26:27.126Z,19.90
2022-10-18T07:27:08.875Z,20.25
2022-10-18T07:27:50.539Z,22.95
2022-10-18T07:28:32.261Z,22.33
2022-10-18T07:29:14.268Z,20.05
2022-10-18T07:29:56.051Z,18.88
2022-10-18T07:30:37.703Z,20.92
2022-10-18T07:31:19.377Z,23.02
2022-10-18T07:32:01.027Z,24.30
2022-10-18T07:32:42.699Z,27.50
2022-10-18T07:33:25.891Z,27.75
2022-10-18T07:34:10.762Z,26.17
2022-10-18T07:34:52.471Z,29.35
2022-10-18T07:35:34.121Z,27.70
2022-10-18T07:36:16.616Z,31.02
2022-10-18T07:36:58.281Z,29.75
2022-10-18T07:37:39.941Z,30.83
2022-10-18T07:38:22.707Z,31.38
2022-10-18T07:39:05.139Z,30.02
2022-10-18T07:39:46.932Z,32.15
2022-10-18T07:40:28.790Z,33.95
2022-10-18T07:41:12.069Z,32.85
2022-10-18T07:41:54.192Z,32.60
2022-10-18T07:42:36.023Z,31.42
2022-10-18T07:43:17.693Z,30.42
2022-10-18T07:43:59.657Z,30.88
2022-10-18T07:44:41.302Z,33.17
2022-10-18T07:45:22.986Z,43.15
2022-10-18T07:46:06.055Z,42.08
2022-10-18T07:46:47.750Z,38.00
2022-10-18T07:47:31.347Z,49.03
2022-10-18T07:48:15.932Z,47.45
2022-10-18T07:48:59.525Z,45.00
2022-10-18T07:49:41.324Z,45.88
2022-10-18T07:50:23.955Z,42.83
2022-10-18T07:51:06.009Z,45.38
2022-10-18T07:51:47.720Z,43.92
2022-10-18T07:52:29.428Z,39.70
2022-10-18T07:53:11.160Z,40.35
2022-10-18T07:53:52.810Z,44.65
2022-10-18T07:54:34.466Z,48.17
2022-10-18T07:55:16.206Z,40.33
2022-10-18T07:56:03.386Z,43.78
2022-10-18T07:56:47.549Z,43.17
2022-10-18T07:57:29.404Z,40.97
2022-10-18T07:58:11.898Z,44.83
2022-10-18T07:58:55.743Z,39.33
2022-10-18T07:59:38.751Z,41.58
2022-10-18T08:00:20.442Z,40.13
2022-10-18T08:01:07.227Z,40.13
2022-10-18T08:01:48.981Z,44.80
2022-10-18T08:02:30.668Z,43.50
2022-10-18T08:03:12.427Z,41.25
2022-10-18T08:03:54.669Z,40.47
2022-10-18T08:04:36.333Z,38.50
2022-10-18T08:05:17.973Z,41.97
2022-10-18T08:05:59.747Z,43.27
2022-10-18T08:06:41.439Z,44.55
2022-10-18T08:07:23.150Z,41.72
2022-10-18T08:08:07.881Z,36.47
2022-10-18T08:08:50.310Z,35.10
2022-10-18T08:09:32.034Z,39.33
2022-10-18T08:10:13.787Z,39.13
2022-10-18T08:10:55.773Z,37.83
2022-10-18T08:11:37.427Z,42.17
2022-10-18T08:12:19.123Z,45.45
2022-10-18T08:13:00.836Z,43.38
2022-10-18T08:13:43.528Z,42.58
2022-10-18T08:14:25.284Z,42.15
2022-10-18T08:15:07.396Z,41.22
2022-10-18T08:15:49.111Z,41.88
2022-10-18T08:17:14.160Z,42.75
2022-10-18T08:17:55.819Z,40.78
2022-10-18T08:18:38.352Z,36.60
2022-10-18T08:19:20.217Z,36.33
2022-10-18T08:20:18.972Z,37.38
2022-10-18T08:21:05.759Z,34.72
2022-10-18T08:21:47.484Z,34.08
2022-10-18T08:22:29.140Z,34.35
2022-10-18T08:23:10.986Z,33.05
2022-10-18T08:23:53.919Z,32.38
2022-10-18T08:24:35.642Z,37.00
2022-10-18T08:25:17.569Z,37.65
2022-10-18T08:26:08.256Z,36.13
2022-10-18T08:26:50.514Z,34.88
2022-10-18T08:27:32.454Z,37.42
2022-10-18T08:28:14.502Z,36.33
2022-10-18T08:29:17.580Z,35.50
2022-10-18T08:29:59.738Z,37.58
2022-10-18T08:30:41.475Z,39.42
2022-10-18T08:31:23.306Z,34.28
2022-10-18T08:32:05.215Z,36.65
2022-10-18T08:32:46.847Z,37.90
2022-10-18T08:33:28.570Z,44.92
2022-10-18T08:34:10.203Z,44.47
2022-10-18T08:34:52.159Z,42.75
2022-10-18T08:35:33.845Z,39.85
2022-10-18T08:36:17.075Z,41.90
2022-10-18T08:36:58.923Z,43.40
2022-10-18T08:37:40.696Z,41.05
2022-10-18T08:38:22.400Z,42.10
2022-10-18T08:39:04.248Z,42.88
2022-10-18T08:39:45.914Z,45.95
2022-10-18T08:40:28.745Z,47.17
2022-10-18T08:41:35.294Z,47.05
2022-10-18T08:42:41.659Z,43.45
2022-10-18T08:43:50.887Z,43.15
2022-10-18T08:44:33.265Z,41.33
2022-10-18T08:45:30.130Z,40.42
2022-10-18T08:46:17.512Z,41.40
2022-10-18T08:47:11.778Z,38.88
2022-10-18T08:47:57.224Z,42.42
2022-10-18T08:48:50.388Z,39.45
2022-10-18T08:49:49.755Z,37.88
2022-10-18T08:50:36.586Z,37.55
2022-10-18T08:51:33.189Z,39.72
2022-10-18T08:52:26.608Z,46.65
2022-10-18T08:53:17.286Z,47.53
2022-10-18T08:54:14.146Z,47.33
2022-10-18T08:55:36.394Z,48.58
2022-10-18T08:56:24.011Z,41.33
2022-10-18T08:57:13.687Z,40.25
2022-10-18T08:57:58.233Z,46.72
2022-10-18T08:58:41.962Z,42.97
2022-10-18T08:59:25.511Z,52.25
2022-10-18T09:00:23.553Z,55.22
2022-10-18T09:01:32.659Z,52.08
2022-10-18T09:02:33.344Z,57.95
2022-10-18T09:03:22.954Z,52.70
2022-10-18T09:04:28.811Z,54.15
2022-10-18T09:05:19.678Z,55.78
2022-10-18T09:06:09.957Z,57.97
2022-10-18T09:06:57.837Z,65.45
2022-10-18T09:07:42.351Z,63.45
2022-10-18T09:08:35.855Z,62.95
2022-10-18T09:09:28.469Z,64.53
2022-10-18T09:10:47.545Z,65.20
2022-10-18T09:11:56.886Z,62.70
2022-10-18T09:13:17.465Z,62.72
2022-10-18T09:14:31.957Z,66.78
2022-10-18T09:15:42.599Z,64.90
2022-10-18T09:16:56.642Z,62.72
2022-10-18T09:18:14.474Z,64.78
2022-10-18T09:19:12.181Z,64.13
2022-10-18T09:20:03.097Z,63.20
2022-10-18T09:20:59.377Z,56.70
2022-10-18T09:21:53.383Z,62.90
2022-10-18T09:23:10.013Z,65.40
2022-10-18T09:24:14.761Z,62.25
2022-10-18T09:25:11.503Z,64.18
2022-10-18T09:26:20.598Z,67.07
2022-10-18T09:27:10.328Z,67.65
2022-10-18T09:28:26.898Z,65.65
2022-10-18T09:29:49.327Z,73.85
2022-10-18T09:30:53.845Z,64.50
2022-10-18T09:31:44.583Z,63.78
2022-10-18T09:32:35.454Z,58.90
2022-10-18T09:33:40.598Z,61.53
2022-10-18T09:34:34.151Z,67.45
2022-10-18T09:35:18.991Z,64.07
2022-10-18T09:36:10.478Z,69.03
2022-10-18T09:36:52.979Z,63.10
2022-10-18T09:37:35.031Z,62.33
2022-10-18T09:38:22.636Z,60.30
2022-10-18T09:39:16.608Z,66.53
2022-10-18T09:40:18.174Z,64.40
2022-10-18T09:41:48.567Z,67.85
2022-10-18T09:42:37.718Z,59.70
2022-10-18T09:43:24.729Z,63.13
2022-10-18T09:44:46.242Z,66.38
2022-10-18T09:45:31.890Z,69.22
2022-10-18T09:46:15.366Z,65.03